Time;durP1;ratioP1;P1;durP2;ratioP2;P2;SDS_P1;SDS_P2;PMS_P1;PMS_P2;Temp;Humidity;BMP_temperature;BMP_pressure;BME280_temperature;BME280_humidity;BME280_pressure;Samples;Min_cycle;Max_cycle;Signal;HPM_P1;HPM_P2
2023/06/11 00:01:41;;;;;;;9.55;6.90;;;25.40;99.90;;;25.83;41.13;101373.91;4937492;29;20079;-62
2023/06/11 00:04:12;;;;;;;8.50;6.30;;;25.30;99.90;;;25.85;41.36;101373.81;4937374;29;20387;-62
2023/06/11 00:06:41;;;;;;;9.68;7.15;;;25.30;99.90;;;25.82;41.68;101377.56;4937483;29;20051;-62
2023/06/11 00:09:10;;;;;;;7.47;6.45;;;25.30;99.90;;;25.82;41.52;101372.13;4937477;29;20051;-62
2023/06/11 00:11:41;;;;;;;8.20;7.00;;;25.30;99.90;;;25.79;41.33;101377.75;4937607;29;20409;-62
2023/06/11 00:14:11;;;;;;;7.90;6.95;;;25.20;99.90;;;25.80;41.69;101365.94;4933625;29;20470;-62
2023/06/11 00:16:40;;;;;;;7.30;6.60;;;25.20;99.90;;;25.79;41.91;101366.03;4932679;29;20075;-62
2023/06/11 00:19:09;;;;;;;8.25;6.32;;;25.20;99.90;;;25.80;41.78;101375.94;4937475;29;20039;-62
2023/06/11 00:21:40;;;;;;;7.43;6.60;;;25.20;99.90;;;25.76;41.90;101368.94;4937178;29;20055;-62
2023/06/11 00:24:09;;;;;;;9.60;7.53;;;25.20;99.90;;;25.39;41.90;101302.50;4937440;29;20409;-62
2023/06/11 00:26:38;;;;;;;8.95;6.50;;;25.20;99.90;;;25.80;42.22;101371.34;4936421;29;20056;-63
2023/06/11 00:29:08;;;;;;;10.35;7.22;;;25.20;99.90;;;25.69;42.10;101368.41;4935644;29;20043;-62
2023/06/11 00:31:37;;;;;;;9.38;6.50;;;25.10;99.90;;;25.52;42.23;101338.72;4924784;29;20458;-62
2023/06/11 00:34:05;;;;;;;8.10;7.30;;;25.20;99.90;;;25.69;42.28;101365.69;4932105;29;20143;-62
2023/06/11 00:36:35;;;;;;;9.30;7.75;;;25.10;99.90;;;25.66;42.35;101365.91;4936869;29;20051;-62
2023/06/11 00:39:05;;;;;;;8.35;6.95;;;25.10;99.90;;;25.66;42.45;101365.91;4936776;29;20130;-62
2023/06/11 00:41:34;;;;;;;10.55;7.30;;;25.10;99.90;;;25.63;43.01;101355.22;4937076;29;20114;-62
2023/06/11 00:44:03;;;;;;;8.10;7.00;;;25.10;99.90;;;25.63;42.79;101371.47;4936945;29;20048;-62
2023/06/11 00:46:37;;;;;;;8.18;6.47;;;25.00;99.90;;;25.15;42.92;101282.19;4936692;29;20079;-62
2023/06/11 00:49:06;;;;;;;9.93;7.47;;;25.00;99.90;;;25.59;43.14;101360.94;4924416;29;20080;-62
2023/06/11 00:51:35;;;;;;;9.68;7.88;;;25.00;99.90;;;25.51;42.90;101358.63;4931649;29;20524;-63
2023/06/11 00:54:04;;;;;;;8.82;7.22;;;25.00;99.90;;;24.77;43.18;101246.53;4936753;29;20051;-62
2023/06/11 00:56:33;;;;;;;8.43;7.45;;;24.90;99.90;;;25.33;43.67;101356.09;4936549;29;20063;-62
2023/06/11 00:59:01;;;;;;;8.10;7.30;;;24.80;99.90;;;25.24;43.82;101352.06;4936599;29;20123;-63
2023/06/11 01:01:41;;;;;;;8.20;7.22;;;24.70;99.90;;;25.24;43.42;101349.38;4936431;29;20387;-62
2023/06/11 01:04:18;;;;;;;11.10;7.57;;;24.70;99.90;;;25.20;44.36;101360.50;4931929;29;20052;-62
2023/06/11 01:06:51;;;;;;;8.50;7.28;;;24.60;99.90;;;25.27;44.29;101356.44;4946678;29;20052;-63
2023/06/11 01:09:23;;;;;;;8.73;7.88;;;24.70;99.90;;;25.28;44.46;101350.94;4934996;29;20111;-62
2023/06/11 01:11:53;;;;;;;9.77;7.72;;;24.70;99.90;;;25.05;44.27;101351.38;4936323;29;20043;-62
2023/06/11 01:14:22;;;;;;;12.40;7.50;;;24.60;99.90;;;24.90;44.78;101349.53;4931997;29;20466;-63
2023/06/11 01:17:02;;;;;;;11.23;7.70;;;24.40;99.90;;;24.91;44.75;101349.44;4944287;29;20111;-64
2023/06/11 01:19:52;;;;;;;9.55;7.85;;;24.40;99.90;;;24.84;44.83;101339.94;4936327;29;20115;-63
2023/06/11 01:22:31;;;;;;;10.40;7.65;;;24.30;99.90;;;24.88;44.97;101348.75;4917510;29;20052;-63
2023/06/11 01:25:16;;;;;;;12.80;8.20;;;24.30;99.90;;;24.95;45.31;101339.34;4931454;29;20052;-64
2023/06/11 01:28:03;;;;;;;10.77;8.10;;;24.40;99.90;;;24.91;45.29;101335.91;4925295;29;20139;-63
2023/06/11 01:30:35;;;;;;;10.07;8.48;;;24.40;99.90;;;24.98;45.50;101329.22;4931838;29;20052;-63
2023/06/11 01:33:05;;;;;;;11.68;7.82;;;24.40;99.90;;;24.89;45.52;101342.41;4934606;29;20505;-64
2023/06/11 01:35:39;;;;;;;10.27;7.50;;;24.40;99.90;;;24.72;45.95;101329.78;4934848;29;20483;-63
2023/06/11 01:38:09;;;;;;;13.93;8.53;;;24.30;99.90;;;24.71;45.50;101335.25;4931417;29;20091;-63
2023/06/11 01:40:41;;;;;;;8.90;8.00;;;24.30;99.90;;;24.51;46.20;101336.34;4931325;29;20295;-64
2023/06/11 01:43:12;;;;;;;10.73;8.13;;;24.10;99.90;;;24.47;46.66;101331.16;4934469;29;20051;-64
2023/06/11 01:45:41;;;;;;;9.88;8.52;;;24.00;99.90;;;24.52;46.81;101334.53;4935592;29;20059;-64
2023/06/11 01:48:09;;;;;;;9.35;8.25;;;24.00;99.90;;;24.40;46.65;101333.34;4935594;29;20062;-63
2023/06/11 01:50:39;;;;;;;12.88;9.15;;;24.00;99.90;;;24.20;47.04;101336.25;4926951;29;20052;-63
2023/06/11 01:53:08;;;;;;;9.48;8.52;;;23.80;99.90;;;24.17;47.39;101333.72;4934348;29;20055;-63
2023/06/11 01:55:37;;;;;;;11.57;8.68;;;23.70;99.90;;;24.17;47.67;101334.59;4942411;29;20051;-63
2023/06/11 01:58:06;;;;;;;10.45;8.38;;;23.70;99.90;;;24.12;47.82;101316.84;4927304;29;20134;-63
2023/06/11 02:00:36;;;;;;;9.35;8.25;;;23.70;99.90;;;24.23;48.06;101329.81;4932016;29;20039;-64
2023/06/11 02:03:05;;;;;;;11.50;8.70;;;23.70;99.90;;;24.17;47.90;101328.31;4934330;29;20147;-64
2023/06/11 02:05:34;;;;;;;10.90;8.20;;;23.70;99.90;;;24.06;48.23;101334.28;4926621;29;20528;-63
2023/06/11 02:08:02;;;;;;;9.65;8.65;;;23.60;99.90;;;24.03;48.44;101326.34;4934192;29;20110;-65
2023/06/11 02:10:31;;;;;;;10.30;9.27;;;23.60;99.90;;;24.08;48.40;101326.94;4935368;29;20044;-64
2023/06/11 02:12:59;;;;;;;10.85;8.57;;;23.60;99.90;;;24.08;48.52;101336.88;4935197;29;20047;-64
2023/06/11 02:15:27;;;;;;;10.70;9.10;;;23.60;99.90;;;24.03;48.76;101341.66;4935358;29;20134;-64
2023/06/11 02:17:57;;;;;;;13.05;9.55;;;23.50;99.90;;;24.01;48.89;101335.44;4930745;29;20059;-62
2023/06/11 02:20:26;;;;;;;11.30;9.40;;;23.50;99.90;;;24.04;49.08;101335.31;4930340;29;20051;-62
2023/06/11 02:22:54;;;;;;;9.65;8.48;;;23.50;99.90;;;24.05;48.99;101342.47;4931778;29;20052;-62
2023/06/11 02:25:23;;;;;;;10.00;8.82;;;23.50;99.90;;;23.99;49.09;101346.34;4935096;29;20054;-62
2023/06/11 02:27:54;;;;;;;9.65;8.27;;;23.50;99.90;;;24.06;49.11;101346.94;4934013;29;20054;-63
2023/06/11 02:30:23;;;;;;;10.90;8.98;;;23.50;99.90;;;23.99;49.25;101348.16;4935279;29;20138;-62
2023/06/11 02:32:51;;;;;;;11.13;9.98;;;23.50;99.90;;;23.86;49.54;101342.53;4933893;29;20524;-63
2023/06/11 02:35:22;;;;;;;10.63;9.10;;;23.50;99.90;;;23.89;49.58;101339.66;4935200;29;20052;-63
2023/06/11 02:37:51;;;;;;;11.10;9.27;;;23.40;99.90;;;23.78;50.07;101341.16;4935103;29;20394;-63
2023/06/11 02:40:20;;;;;;;11.30;9.38;;;23.40;99.90;;;23.74;50.28;101340.44;4933758;29;20138;-62
2023/06/11 02:42:48;;;;;;;12.15;9.60;;;23.30;99.90;;;23.46;50.68;101345.47;4935275;29;20048;-62
2023/06/11 02:45:16;;;;;;;10.88;9.65;;;23.10;99.90;;;23.54;51.22;101340.56;4926195;29;20497;-62
2023/06/11 02:47:45;;;;;;;10.68;9.43;;;23.00;99.90;;;23.28;51.44;101344.56;4934910;29;20071;-62
2023/06/11 02:50:13;;;;;;;13.63;10.07;;;22.90;99.90;;;23.36;51.84;101344.22;4935452;29;20047;-62
2023/06/11 02:52:43;;;;;;;12.32;9.68;;;22.90;99.90;;;23.08;51.83;101306.84;4938704;29;20048;-63
2023/06/11 02:55:12;;;;;;;11.70;9.98;;;22.80;99.90;;;23.09;52.55;101334.72;4946070;29;20064;-64
2023/06/11 02:57:40;;;;;;;12.05;10.63;;;22.70;99.90;;;22.54;53.42;101276.22;4938856;29;20066;-62
2023/06/11 03:00:11;;;;;;;14.05;10.52;;;22.50;99.90;;;22.61;54.55;101339.75;4938696;29;20059;-62
2023/06/11 03:02:40;;;;;;;13.73;11.02;;;22.20;99.90;;;22.54;54.77;101331.03;4934218;29;20490;-63
2023/06/11 03:05:09;;;;;;;15.27;11.18;;;22.00;99.90;;;22.44;55.46;101330.59;4926182;29;20527;-62
2023/06/11 03:07:39;;;;;;;15.48;10.88;;;21.90;99.90;;;22.30;56.17;101327.63;4929729;29;20138;-63
2023/06/11 03:10:10;;;;;;;13.73;11.27;;;21.80;99.90;;;22.03;57.06;101319.91;4937238;29;20063;-62
2023/06/11 03:12:39;;;;;;;14.63;11.50;;;21.50;99.90;;;21.95;57.46;101328.31;4945581;29;20501;-62
2023/06/11 03:15:08;;;;;;;15.30;11.00;;;21.50;99.90;;;21.75;58.29;101309.44;4938413;29;20056;-62
2023/06/11 03:17:37;;;;;;;13.40;11.57;;;21.40;99.90;;;21.59;58.59;101284.13;4929244;29;20060;-62
2023/06/11 03:20:08;;;;;;;13.85;12.43;;;21.30;99.90;;;21.72;59.18;101325.72;4938447;29;20102;-62
2023/06/11 03:22:37;;;;;;;14.05;12.35;;;21.20;99.90;;;21.73;59.39;101324.78;4946345;29;20079;-62
2023/06/11 03:25:07;;;;;;;14.27;11.80;;;21.20;99.90;;;21.67;59.79;101332.25;4936956;29;20099;-62
2023/06/11 03:27:38;;;;;;;14.43;11.90;;;21.20;99.90;;;21.64;60.16;101319.78;4936848;29;20059;-62
2023/06/11 03:30:08;;;;;;;14.68;12.40;;;21.10;99.90;;;21.55;60.76;101323.75;4936693;29;20494;-62
2023/06/11 03:32:39;;;;;;;16.23;12.65;;;21.00;99.90;;;21.56;60.96;101330.03;4929389;29;20568;-62
2023/06/11 03:35:10;;;;;;;13.68;12.23;;;21.10;99.90;;;21.64;61.00;101327.00;4938137;29;20062;-62
2023/06/11 03:37:39;;;;;;;13.85;12.45;;;21.10;99.90;;;21.64;61.16;101335.94;4945892;29;20070;-63
2023/06/11 03:40:13;;;;;;;16.70;12.57;;;21.10;99.90;;;21.71;61.23;101332.06;4936671;29;20071;-62
2023/06/11 03:42:43;;;;;;;14.52;12.77;;;21.20;99.90;;;21.80;61.08;101326.31;4944821;29;20488;-62
2023/06/11 03:45:12;;;;;;;14.40;12.43;;;21.30;99.90;;;21.99;60.86;101332.63;4936828;29;20103;-62
2023/06/11 03:47:41;;;;;;;17.10;13.43;;;21.50;99.90;;;22.17;60.41;101328.25;4944875;29;20048;-62
2023/06/11 03:50:12;;;;;;;14.40;12.10;;;21.70;99.90;;;22.42;59.69;101332.47;4936581;29;20052;-62
2023/06/11 03:52:41;;;;;;;14.75;12.93;;;21.90;99.90;;;22.58;59.55;101337.19;4944243;29;20079;-62
2023/06/11 03:55:10;;;;;;;12.90;11.55;;;22.10;99.90;;;22.38;60.04;101346.16;4917871;29;20450;-62
2023/06/11 03:57:39;;;;;;;14.43;12.48;;;21.90;99.90;;;22.62;59.68;101339.69;4936569;29;20048;-62
2023/06/11 04:00:11;;;;;;;17.95;12.32;;;22.10;99.90;;;22.70;59.26;101342.03;4944698;29;20051;-62
2023/06/11 04:02:43;;;;;;;14.18;12.20;;;22.20;99.90;;;22.82;59.08;101349.53;4936520;29;20079;-63
2023/06/11 04:05:16;;;;;;;15.35;12.25;;;22.30;99.90;;;22.76;59.30;101333.66;4944280;29;20390;-62
2023/06/11 04:07:51;;;;;;;20.05;12.85;;;22.40;99.90;;;22.93;59.09;101350.78;4933982;29;20158;-62
2023/06/11 04:10:20;;;;;;;16.10;13.20;;;22.40;99.90;;;22.84;59.24;101351.19;4936334;29;20051;-62
2023/06/11 04:12:48;;;;;;;14.77;12.38;;;22.40;99.90;;;22.43;59.25;101274.03;4944452;29;20446;-62
2023/06/11 04:15:18;;;;;;;16.15;12.73;;;22.40;99.90;;;22.87;59.77;101352.88;4936095;29;20421;-62
2023/06/11 04:17:47;;;;;;;;;;;22.30;99.90;;;23.07;59.32;101347.44;4944520;29;20055;-62
2023/06/11 04:20:17;;;;;;;15.52;12.57;;;22.50;99.90;;;23.11;59.09;101349.88;4935838;29;20377;-62
2023/06/11 04:22:45;;;;;;;14.05;12.25;;;22.60;99.90;;;23.31;58.27;101351.66;4944157;29;20445;-63
2023/06/11 04:25:16;;;;;;;15.27;12.18;;;22.70;99.90;;;23.46;58.42;101363.53;4924625;29;20064;-62
2023/06/11 04:27:47;;;;;;;17.35;12.35;;;22.90;99.90;;;23.59;58.56;101361.97;4951807;29;20052;-63
2023/06/11 04:30:18;;;;;;;13.48;12.18;;;23.00;99.90;;;23.64;58.16;101359.91;4944119;29;20090;-62
2023/06/11 04:32:54;;;;;;;13.68;12.13;;;23.10;99.90;;;23.70;58.08;101365.00;4935735;29;20047;-62
2023/06/11 04:35:25;;;;;;;13.38;12.07;;;23.20;99.90;;;23.75;58.02;101362.94;4943631;29;20052;-62
2023/06/11 04:37:55;;;;;;;15.70;13.43;;;23.20;99.90;;;23.61;58.17;101360.06;4924554;29;20055;-62
2023/06/11 04:40:26;;;;;;;15.68;13.32;;;23.20;99.90;;;23.59;58.75;101362.84;4935701;29;20119;-62
2023/06/11 04:42:56;;;;;;;16.73;13.07;;;23.10;99.90;;;23.47;59.16;101363.44;4935466;29;20540;-62
2023/06/11 04:45:26;;;;;;;16.42;12.98;;;23.00;99.90;;;23.25;59.50;101336.59;4927825;29;20469;-62
2023/06/11 04:47:56;;;;;;;15.95;12.45;;;23.00;99.90;;;23.25;60.20;101362.72;4935572;29;20055;-61
2023/06/11 04:50:25;;;;;;;15.80;13.85;;;22.70;99.90;;;23.26;60.51;101353.69;4943752;29;20453;-62
2023/06/11 04:53:01;;;;;;;14.38;12.77;;;22.70;99.90;;;23.37;60.38;101361.28;4929211;29;20059;-62
2023/06/11 04:55:32;;;;;;;17.95;13.73;;;22.90;99.90;;;23.35;60.44;101364.06;4935272;29;20139;-62
2023/06/11 04:58:01;;;;;;;14.93;13.38;;;22.90;99.90;;;23.35;60.55;101364.06;4935430;29;20134;-62
2023/06/11 05:00:32;;;;;;;15.73;14.07;;;22.90;99.90;;;23.36;60.43;101355.00;4935332;29;20560;-62
2023/06/11 05:03:04;;;;;;;17.63;13.80;;;22.90;99.90;;;23.25;61.20;101357.31;4936597;29;20055;-62
2023/06/11 05:05:34;;;;;;;17.92;13.73;;;22.80;99.90;;;23.26;61.34;101361.78;4916331;29;20055;-62
2023/06/11 05:08:03;;;;;;;17.40;13.05;;;22.80;99.90;;;23.34;61.07;101366.84;4936167;29;20082;-62
2023/06/11 05:10:31;;;;;;;15.35;13.85;;;22.80;99.90;;;23.29;61.34;101367.00;4935000;29;20094;-62
2023/06/11 05:13:00;;;;;;;15.20;13.20;;;22.90;99.90;;;23.46;61.30;101369.78;4934791;29;20055;-63
2023/06/11 05:15:29;;;;;;;15.15;13.43;;;22.90;99.90;;;23.55;61.23;101374.75;4927341;29;20058;-62
2023/06/11 05:18:00;;;;;;;16.65;14.98;;;23.00;99.90;;;23.42;62.08;101370.03;4934642;29;20051;-62
2023/06/11 05:20:30;;;;;;;16.63;14.00;;;23.00;99.90;;;23.55;61.50;101377.47;4927204;29;20504;-62
2023/06/11 05:22:59;;;;;;;18.10;14.63;;;23.00;99.90;;;23.33;62.10;101381.28;4931905;29;20121;-62
2023/06/11 05:25:31;;;;;;;16.38;14.57;;;22.90;99.90;;;23.27;62.61;101372.50;4916479;29;20300;-62
2023/06/11 05:28:03;;;;;;;17.13;14.32;;;22.80;99.90;;;23.41;62.54;101396.16;4934758;29;20390;-62
2023/06/11 05:30:36;;;;;;;17.20;14.23;;;22.90;99.90;;;23.47;62.54;101379.66;4936061;29;20044;-62
2023/06/11 05:33:07;;;;;;;17.73;15.40;;;23.00;99.90;;;23.35;63.24;101380.25;4934575;29;20052;-62
2023/06/11 05:35:36;;;;;;;16.90;14.23;;;22.90;99.90;;;23.41;63.63;101362.88;4942889;29;20051;-62
2023/06/11 05:38:06;;;;;;;16.10;14.43;;;22.90;99.90;;;23.56;63.62;101389.13;4915673;29;20075;-62
2023/06/11 05:40:36;;;;;;;18.85;15.50;;;23.00;99.90;;;23.50;63.89;101384.03;4916200;29;20052;-62
2023/06/11 05:43:05;;;;;;;19.52;15.15;;;23.00;99.90;;;23.67;64.03;101390.34;4934416;29;20050;-63
2023/06/11 05:45:35;;;;;;;17.15;14.82;;;23.10;99.90;;;22.97;65.07;101309.22;4942668;29;20052;-63
2023/06/11 05:48:07;;;;;;;;;;;22.90;99.90;;;23.22;65.81;101384.47;4934980;29;20048;-61
2023/06/11 05:50:38;;;;;;;20.20;15.93;;;22.80;99.90;;;23.28;66.60;101373.38;4942767;29;19923;-62
2023/06/11 05:53:08;;;;;;;20.23;15.18;;;22.70;99.90;;;23.32;66.53;101374.13;4934321;29;20051;-62
2023/06/11 05:55:39;;;;;;;18.83;15.10;;;22.70;99.90;;;23.27;66.57;101379.72;4931324;29;20055;-63
2023/06/11 05:58:10;;;;;;;17.38;15.23;;;22.80;99.90;;;22.94;66.51;101333.63;4934259;29;20453;-62
2023/06/11 06:00:38;;;;;;;17.38;15.68;;;22.80;99.90;;;23.29;67.36;101383.22;4935794;29;20400;-62
2023/06/11 06:03:08;;;;;;;16.83;15.15;;;22.70;99.90;;;23.46;66.34;101386.00;4934271;29;20102;-62
2023/06/11 06:05:37;;;;;;;17.63;15.77;;;22.90;99.90;;;23.46;66.21;101379.75;4934231;29;20062;-62
2023/06/11 06:08:06;;;;;;;21.30;16.42;;;22.90;99.90;;;23.54;66.10;101381.09;4934056;29;20055;-62
2023/06/11 06:10:35;;;;;;;22.80;15.57;;;23.00;99.90;;;23.55;65.78;101398.19;4935269;29;20048;-62
2023/06/11 06:13:04;;;;;;;19.83;14.68;;;23.00;99.90;;;23.68;65.97;101389.38;4931257;29;20050;-64
2023/06/11 06:15:33;;;;;;;18.17;15.35;;;23.10;99.90;;;23.87;65.64;101395.63;4935405;29;20450;-63
2023/06/11 06:18:04;;;;;;;16.38;14.80;;;23.30;99.90;;;23.59;64.29;101289.03;4933737;29;20048;-64
2023/06/11 06:20:41;;;;;;;16.05;14.35;;;23.60;99.90;;;24.25;64.16;101398.22;4934088;29;20044;-64
2023/06/11 06:23:12;;;;;;;18.02;15.43;;;23.70;99.90;;;23.95;65.03;101390.69;4922974;29;20063;-65
2023/06/11 06:25:45;;;;;;;19.00;15.15;;;23.50;99.90;;;23.61;65.61;101387.06;4946370;29;20052;-62
2023/06/11 06:28:17;;;;;;;17.30;15.43;;;23.20;99.90;;;23.23;65.19;101283.63;4933942;29;20052;-62
2023/06/11 06:30:46;;;;;;;20.00;15.18;;;23.30;99.90;;;23.82;64.76;101375.19;4942353;29;20052;-62
2023/06/11 06:33:16;;;;;;;17.42;15.52;;;23.30;99.90;;;23.76;64.48;101397.09;4933770;29;20051;-63
2023/06/11 06:35:46;;;;;;;19.08;15.68;;;23.30;99.90;;;23.82;65.14;101392.28;4941856;29;20059;-63
2023/06/11 06:38:15;;;;;;;17.25;15.60;;;23.30;99.90;;;23.20;64.94;101272.97;4930743;29;20086;-63
2023/06/11 06:40:45;;;;;;;18.38;15.63;;;23.30;99.90;;;24.09;64.37;101401.72;4943666;29;20083;-63
2023/06/11 06:43:14;;;;;;;20.05;14.82;;;23.60;99.90;;;23.99;64.06;101403.09;4934852;29;20165;-63
2023/06/11 06:45:43;;;;;;;20.27;15.30;;;23.50;99.90;;;23.75;65.38;101409.72;4942053;29;20493;-64
2023/06/11 06:48:23;;;;;;;17.23;15.43;;;23.30;99.90;;;23.76;65.47;101405.22;4933899;29;20052;-63
2023/06/11 06:50:56;;;;;;;18.63;15.80;;;23.30;99.90;;;23.65;65.22;101411.19;4941742;29;20051;-64
2023/06/11 06:53:25;;;;;;;17.85;15.05;;;23.20;99.90;;;24.08;65.13;101397.25;4915174;29;20056;-71
2023/06/11 06:55:54;;;;;;;17.75;14.60;;;23.50;99.90;;;24.17;63.49;101385.09;4934867;29;20063;-66
2023/06/11 06:58:22;;;;;;;17.65;15.25;;;23.60;99.90;;;23.84;62.80;101321.94;4942085;29;20047;-70
2023/06/11 07:00:51;;;;;;;17.95;15.23;;;23.80;99.90;;;24.37;63.47;101400.28;4933326;29;20050;-70
2023/06/11 07:03:21;;;;;;;18.02;14.07;;;23.90;99.90;;;24.47;62.91;101380.75;4933707;29;20051;-69
2023/06/11 07:05:49;;;;;;;17.35;14.90;;;24.00;99.90;;;24.61;62.83;101397.13;4933414;29;21011;-71
2023/06/11 07:08:21;;;;;;;16.23;14.60;;;24.10;99.90;;;24.39;62.87;101350.53;4933522;29;20044;-70
2023/06/11 07:10:53;;;;;;;16.20;14.45;;;24.10;99.90;;;24.64;62.33;101405.06;4930382;29;20466;-70
2023/06/11 07:13:31;;;;;;;15.80;14.00;;;24.20;99.90;;;24.90;62.48;101390.16;4930825;29;20048;-70
2023/06/11 07:16:00;;;;;;;14.75;13.18;;;24.30;99.90;;;25.01;62.96;101401.25;4933516;29;20056;-70
2023/06/11 07:18:29;;;;;;;18.55;14.13;;;24.40;99.90;;;24.76;62.72;101335.88;4933183;29;20064;-70
2023/06/11 07:21:01;;;;;;;19.33;13.95;;;24.60;99.90;;;24.96;61.39;101416.88;4930276;29;20062;-71
2023/06/11 07:23:35;;;;;;;18.08;14.30;;;24.60;99.90;;;25.25;60.67;101415.25;4931390;29;20572;-70
2023/06/11 07:26:13;;;;;;;16.52;14.48;;;24.70;99.90;;;25.29;60.01;101409.59;4933492;29;20116;-69
2023/06/11 07:28:51;;;;;;;15.68;14.18;;;24.80;99.90;;;25.43;60.61;101407.00;4933388;29;20095;-69
2023/06/11 07:31:22;;;;;;;17.13;13.73;;;24.90;99.90;;;25.42;60.03;101416.09;4923040;29;20079;-69
2023/06/11 07:33:54;;;;;;;15.80;14.13;;;25.00;99.90;;;25.44;60.23;101418.69;4934651;29;20044;-70
2023/06/11 07:36:23;;;;;;;16.48;14.45;;;25.00;99.90;;;25.71;60.44;101412.56;4933708;29;20505;-68
2023/06/11 07:38:52;;;;;;;16.27;14.10;;;25.20;99.90;;;25.67;59.35;101411.00;4945212;29;20058;-71
2023/06/11 07:41:21;;;;;;;16.50;14.02;;;25.20;99.90;;;25.78;59.80;101405.81;4933743;29;20079;-70
2023/06/11 07:43:50;;;;;;;17.15;13.90;;;25.20;99.90;;;26.03;58.57;101410.69;4936885;29;20048;-70
2023/06/11 07:46:19;;;;;;;19.38;14.90;;;25.50;99.90;;;26.03;57.96;101417.94;4917740;29;20052;-70
2023/06/11 07:48:48;;;;;;;16.85;14.68;;;25.50;99.90;;;25.97;58.99;101413.75;4933866;29;20044;-71
2023/06/11 07:51:20;;;;;;;15.98;13.68;;;25.50;99.90;;;26.24;59.65;101411.25;4936654;29;20509;-70
2023/06/11 07:53:56;;;;;;;25.38;14.68;;;25.70;99.90;;;26.29;58.36;101417.25;4936572;29;20047;-72
2023/06/11 07:56:26;;;;;;;24.15;13.95;;;25.80;99.90;;;26.41;58.63;101417.41;4937750;29;20052;-75
2023/06/11 07:58:55;;;;;;;15.80;12.90;;;25.90;99.90;;;26.59;58.25;101416.28;4933395;29;20485;-72
2023/06/11 08:01:23;;;;;;;15.50;13.57;;;26.10;99.90;;;26.57;59.04;101411.91;4933935;29;20047;-71
2023/06/11 08:03:51;;;;;;;15.25;13.77;;;26.00;99.90;;;26.68;58.65;101414.81;4937318;29;20107;-73
2023/06/11 08:06:20;;;;;;;15.40;13.77;;;26.10;99.90;;;26.78;56.83;101394.28;4937392;29;20047;-70
2023/06/11 08:08:49;;;;;;;15.75;12.65;;;26.30;99.90;;;27.02;57.22;101410.88;4937702;29;20482;-73
2023/06/11 08:11:18;;;;;;;15.50;13.90;;;26.50;99.90;;;27.09;57.52;101407.69;4937692;29;20126;-72
2023/06/11 08:13:47;;;;;;;16.70;14.00;;;26.50;99.90;;;26.82;57.29;101413.97;4937336;29;20047;-72
2023/06/11 08:16:17;;;;;;;15.07;13.52;;;26.40;99.90;;;26.86;57.20;101410.09;4937329;29;20681;-70
2023/06/11 08:18:45;;;;;;;14.73;13.10;;;26.40;99.90;;;26.97;58.74;101405.72;4937332;29;20055;-70
2023/06/11 08:21:13;;;;;;;15.18;13.57;;;26.40;99.90;;;27.16;58.28;101411.72;4937152;29;20072;-70
2023/06/11 08:23:42;;;;;;;16.15;13.82;;;26.60;99.90;;;26.95;58.51;101398.66;4937680;29;20047;-67
2023/06/11 08:26:12;;;;;;;15.57;13.93;;;26.50;99.90;;;26.97;58.03;101407.56;4936923;29;20059;-69
2023/06/11 08:28:41;;;;;;;17.88;14.35;;;26.50;99.90;;;26.71;57.75;101409.25;4937347;29;20576;-71
2023/06/11 08:31:10;;;;;;;15.63;14.23;;;26.30;99.90;;;26.75;58.74;101410.81;4937198;29;20052;-70
2023/06/11 08:33:39;;;;;;;17.98;13.07;;;26.20;99.90;;;26.96;59.45;101411.28;4935827;29;20457;-71
2023/06/11 08:36:08;;;;;;;15.27;13.80;;;26.30;99.90;;;26.91;58.58;101397.09;4937138;29;20453;-70
2023/06/11 08:38:36;;;;;;;17.92;14.43;;;26.40;99.90;;;26.84;57.95;101388.47;4935586;29;20058;-73
2023/06/11 08:41:06;;;;;;;17.63;15.82;;;26.40;99.90;;;26.96;57.88;101400.41;4937078;29;20094;-71
2023/06/11 08:43:35;;;;;;;17.55;13.85;;;26.40;99.90;;;26.55;58.45;101325.16;4936717;29;20505;-69
2023/06/11 08:46:05;;;;;;;17.73;13.07;;;26.40;99.90;;;27.45;58.52;101398.97;4933179;29;20048;-70
2023/06/11 08:48:39;;;;;;;15.05;13.13;;;26.80;99.90;;;27.54;57.81;101392.97;4936331;29;20485;-68
2023/06/11 08:51:10;;;;;;;15.45;13.85;;;27.00;99.90;;;27.91;56.62;101397.69;4935039;29;20390;-70
2023/06/11 08:53:40;;;;;;;29.63;14.52;;;27.40;99.90;;;27.36;56.41;101339.81;4936668;29;20058;-74
2023/06/11 08:56:08;;;;;;;15.10;13.50;;;27.30;99.90;;;27.66;56.63;101392.16;4936566;29;20075;-67
2023/06/11 08:58:37;;;;;;;14.07;12.48;;;27.20;99.90;;;27.50;55.83;101316.19;4936420;29;20106;-71
2023/06/11 09:01:11;;;;;;;15.07;13.57;;;27.40;99.90;;;28.05;55.95;101397.63;4934916;29;20511;-72
2023/06/11 09:03:39;;;;;;;16.15;13.20;;;27.60;99.90;;;27.94;55.40;101397.50;4936400;29;20043;-72
2023/06/11 09:06:08;;;;;;;18.48;13.07;;;27.60;99.90;;;28.00;55.51;101398.91;4936264;29;20040;-73
2023/06/11 09:08:36;;;;;;;14.18;12.80;;;27.50;99.90;;;28.03;55.66;101398.72;4936328;29;20138;-72
2023/06/11 09:11:06;;;;;;;14.93;13.23;;;27.50;99.90;;;27.81;56.38;101391.13;4936165;29;20050;-71
2023/06/11 09:13:34;;;;;;;16.73;12.32;;;27.40;99.90;;;28.26;55.75;101398.00;4943283;29;20457;-70
2023/06/11 09:16:02;;;;;;;14.15;12.68;;;27.60;99.90;;;28.25;54.99;101364.47;4936198;29;20083;-72
2023/06/11 09:18:32;;;;;;;14.60;12.35;;;27.90;99.90;;;28.45;54.86;101401.19;4935792;29;20056;-67
2023/06/11 09:21:01;;;;;;;14.90;13.40;;;28.00;99.90;;;28.40;54.49;101403.34;4932576;29;20059;-70
2023/06/11 09:23:32;;;;;;;15.15;12.73;;;27.90;99.90;;;28.34;54.79;101391.03;4935605;29;20086;-70
2023/06/11 09:26:01;;;;;;;12.55;11.35;;;27.90;99.90;;;28.82;54.81;101403.09;4936107;29;20056;-70
2023/06/11 09:28:31;;;;;;;13.38;11.93;;;28.30;99.90;;;28.64;53.99;101400.78;4935877;29;20430;-71
2023/06/11 09:31:01;;;;;;;18.23;13.40;;;28.20;99.90;;;28.23;53.98;101406.38;4935744;29;20054;-70
2023/06/11 09:33:32;;;;;;;17.42;13.63;;;27.80;99.90;;;27.94;56.60;101400.22;4936002;29;20051;-73
2023/06/11 09:36:01;;;;;;;13.57;12.02;;;27.50;99.90;;;28.37;56.66;101406.28;4936036;29;20055;-74
2023/06/11 09:38:34;;;;;;;15.23;13.65;;;27.80;99.90;;;28.44;56.07;101407.59;4932226;29;20059;-73
2023/06/11 09:41:06;;;;;;;14.23;12.82;;;27.90;99.90;;;28.41;55.18;101394.22;4935739;29;20122;-74
2023/06/11 09:43:35;;;;;;;15.65;14.15;;;28.00;99.90;;;28.18;55.18;101400.38;4935638;29;20060;-71
2023/06/11 09:46:03;;;;;;;15.50;12.43;;;27.70;99.90;;;28.33;55.85;101408.34;4935723;29;20122;-70
2023/06/11 09:48:34;;;;;;;14.38;12.88;;;27.70;99.90;;;28.80;56.05;101405.03;4935608;29;20048;-70
2023/06/11 09:51:03;;;;;;;14.48;13.07;;;28.20;99.90;;;28.94;53.69;101407.63;4935687;29;20040;-70
2023/06/11 09:53:33;;;;;;;13.43;12.00;;;28.40;99.90;;;28.90;54.47;101403.38;4931885;29;20051;-72
2023/06/11 09:56:06;;;;;;;14.95;12.88;;;28.50;99.90;;;28.69;54.25;101385.00;4935713;29;20165;-69
2023/06/11 09:58:40;;;;;;;13.98;12.57;;;28.40;99.90;;;28.96;54.25;101413.00;4935334;29;20091;-72
2023/06/11 10:01:10;;;;;;;;;;;28.50;99.90;;;28.64;54.35;101420.72;4935101;29;20047;-72
2023/06/11 10:03:41;;;;;;;15.55;12.73;;;28.30;99.90;;;28.81;54.08;101401.31;4935547;28;20320;-74
2023/06/11 10:06:19;;;;;;;17.40;12.60;;;28.40;99.90;;;28.39;53.89;101333.56;4931878;29;20071;-71
2023/06/11 10:08:50;;;;;;;14.20;12.48;;;28.40;99.90;;;28.95;54.92;101393.03;4935337;29;20051;-73
2023/06/11 10:11:23;;;;;;;15.02;12.82;;;28.50;99.90;;;28.76;54.61;101406.25;4935493;29;20048;-70
2023/06/11 10:14:00;;;;;;;12.35;11.23;;;28.30;99.90;;;29.08;53.98;101412.97;4935400;29;20048;-70
2023/06/11 10:16:29;;;;;;;13.82;12.40;;;28.50;99.90;;;29.11;51.55;101415.44;4932496;29;20075;-72